Time;durP1;ratioP1;P1;durP2;ratioP2;P2;SDS_P1;SDS_P2;PMS_P1;PMS_P2;Temp;Humidity;BMP_temperature;BMP_pressure;BME280_temperature;BME280_humidity;BME280_pressure;Samples;Min_cycle;Max_cycle;Signal;HPM_P1;HPM_P2
2022/05/17 00:01:22;;;;;;;5.45;2.40;;;17.20;70.70;;;;;;5095035;28;20020;-38
2022/05/17 00:03:48;;;;;;;5.00;2.17;;;17.20;70.90;;;;;;5094802;28;20401;-39
2022/05/17 00:06:14;;;;;;;5.82;2.20;;;17.20;71.00;;;;;;5093490;28;20112;-39
2022/05/17 00:08:39;;;;;;;5.03;2.20;;;17.10;70.90;;;;;;5094602;28;20059;-39
2022/05/17 00:11:06;;;;;;;5.15;2.30;;;17.10;71.00;;;;;;5093015;28;20024;-39
2022/05/17 00:13:32;;;;;;;5.32;2.15;;;17.10;71.10;;;;;;5094408;28;20024;-37
2022/05/17 00:15:59;;;;;;;6.13;2.10;;;17.10;71.20;;;;;;5094112;28;20023;-39
2022/05/17 00:18:25;;;;;;;4.63;2.50;;;17.10;71.30;;;;;;5094001;28;20028;-39
2022/05/17 00:20:51;;;;;;;6.20;2.55;;;17.00;71.30;;;;;;5093863;28;20336;-37
2022/05/17 00:23:17;;;;;;;6.05;2.30;;;17.00;71.40;;;;;;5094309;28;20020;-39
2022/05/17 00:25:47;;;;;;;4.32;2.30;;;17.00;71.50;;;;;;5092657;28;20099;-39
2022/05/17 00:28:19;;;;;;;6.20;2.35;;;17.00;71.50;;;;;;5092519;28;20119;-38
2022/05/17 00:30:45;;;;;;;7.95;2.38;;;17.00;71.70;;;;;;5093732;28;20050;-37
2022/05/17 00:33:11;;;;;;;6.20;2.78;;;17.00;71.70;;;;;;5093899;28;20043;-37
2022/05/17 00:35:36;;;;;;;5.72;2.72;;;17.00;71.90;;;;;;5093934;28;20031;-37
2022/05/17 00:38:02;;;;;;;4.68;2.25;;;17.00;71.90;;;;;;5093545;28;20030;-38
2022/05/17 00:40:28;;;;;;;5.53;2.38;;;17.00;72.00;;;;;;5093595;28;20016;-37
2022/05/17 00:42:54;;;;;;;5.65;2.50;;;17.00;71.90;;;;;;5093578;28;20089;-38
2022/05/17 00:45:19;;;;;;;7.07;2.45;;;17.10;72.00;;;;;;5093841;28;20020;-37
2022/05/17 00:47:53;;;;;;;7.60;3.00;;;17.10;71.80;;;;;;5093585;28;20028;-38
2022/05/17 00:50:18;;;;;;;5.07;2.45;;;17.20;71.80;;;;;;5093900;28;20052;-36
2022/05/17 00:53:06;;;;;;;6.47;2.40;;;17.20;71.80;;;;;;5093556;28;20091;-37
2022/05/17 00:55:38;;;;;;;5.10;2.50;;;17.30;71.80;;;;;;5093382;28;20036;-36
2022/05/17 00:58:12;;;;;;;6.72;2.88;;;17.30;71.70;;;;;;5093488;28;20075;-37
2022/05/17 01:00:40;;;;;;;;;;;17.30;71.80;;;;;;5093865;28;20031;-38
2022/05/17 01:03:09;;;;;;;6.65;2.70;;;17.20;71.60;;;;;;5092219;28;19935;-38
2022/05/17 01:05:40;;;;;;;6.22;2.60;;;17.20;71.70;;;;;;5093110;28;20048;-38
2022/05/17 01:08:09;;;;;;;6.97;2.75;;;17.20;71.80;;;;;;5092495;28;20024;-39
2022/05/17 01:10:34;;;;;;;7.05;3.15;;;17.20;71.90;;;;;;5093358;28;20032;-38
2022/05/17 01:15:45;;;;;;;4.90;2.40;;;17.20;72.00;;;;;;5093556;28;20058;-38
2022/05/17 01:18:11;;;;;;;6.95;2.72;;;17.20;72.10;;;;;;5093022;28;20460;-38
2022/05/17 01:20:37;;;;;;;4.25;2.67;;;17.10;72.20;;;;;;5093045;28;20050;-37
2022/05/17 01:23:03;;;;;;;5.07;2.60;;;17.10;72.20;;;;;;5093055;28;20532;-39
2022/05/17 01:25:29;;;;;;;5.07;2.78;;;17.10;72.30;;;;;;5093136;28;20024;-37
2022/05/17 01:28:01;;;;;;;6.18;2.70;;;17.00;72.30;;;;;;5093138;28;20063;-38
2022/05/17 01:30:28;;;;;;;5.95;2.97;;;17.10;72.40;;;;;;5092762;28;20028;-36
2022/05/17 01:32:54;;;;;;;5.40;2.85;;;17.10;72.50;;;;;;5092587;28;20032;-37
2022/05/17 01:35:20;;;;;;;7.20;2.53;;;17.10;72.50;;;;;;5092972;28;20065;-38
2022/05/17 01:37:50;;;;;;;4.70;2.65;;;17.10;72.50;;;;;;5092685;28;20024;-38
2022/05/17 01:40:16;;;;;;;6.15;2.70;;;17.10;72.50;;;;;;5092648;28;20027;-37
2022/05/17 01:42:42;;;;;;;6.00;2.65;;;17.10;72.40;;;;;;5092488;28;20031;-37
2022/05/17 01:45:08;;;;;;;7.45;3.03;;;17.20;72.40;;;;;;5092905;28;20020;-37
2022/05/17 01:47:33;;;;;;;7.03;2.70;;;17.20;72.40;;;;;;5092744;28;20028;-37
2022/05/17 01:49:59;;;;;;;7.38;2.80;;;17.20;72.40;;;;;;5092766;28;20047;-38
2022/05/17 01:52:24;;;;;;;7.85;2.90;;;17.20;72.40;;;;;;5092756;28;20035;-38
2022/05/17 01:54:50;;;;;;;8.23;3.05;;;17.20;72.40;;;;;;5092624;28;20520;-37
2022/05/17 01:57:15;;;;;;;7.70;2.90;;;17.30;72.40;;;;;;5092313;28;20081;-38
2022/05/17 01:59:41;;;;;;;6.80;2.95;;;17.30;72.40;;;;;;5091158;28;20030;-38
2022/05/17 02:02:07;;;;;;;4.70;2.80;;;17.30;72.40;;;;;;5092455;28;20097;-38
2022/05/17 02:04:33;;;;;;;7.13;2.65;;;17.20;72.30;;;;;;5092552;28;20031;-36
2022/05/17 02:06:58;;;;;;;5.22;2.58;;;17.20;72.40;;;;;;5092386;28;20052;-38
2022/05/17 02:09:24;;;;;;;6.00;2.65;;;17.10;72.50;;;;;;5092511;28;20105;-38
2022/05/17 02:11:49;;;;;;;5.63;2.90;;;17.20;72.60;;;;;;5092372;28;20012;-38
2022/05/17 02:14:15;;;;;;;5.28;3.08;;;17.10;72.60;;;;;;5092853;28;20028;-37
2022/05/17 02:16:41;;;;;;;6.47;2.88;;;17.10;72.60;;;;;;5092506;28;20016;-38
2022/05/17 02:19:07;;;;;;;6.97;3.42;;;17.20;72.60;;;;;;5095400;28;20099;-44
2022/05/17 02:21:37;;;;;;;7.45;2.90;;;17.20;72.70;;;;;;5096562;28;20039;-37
2022/05/17 02:24:03;;;;;;;6.55;3.20;;;17.20;72.70;;;;;;5096502;28;20099;-37
2022/05/17 02:26:30;;;;;;;4.32;2.72;;;17.10;72.60;;;;;;5096247;28;20055;-37
2022/05/17 02:28:55;;;;;;;5.03;2.80;;;17.20;72.70;;;;;;5096646;28;20551;-37
2022/05/17 02:31:23;;;;;;;5.55;2.70;;;17.20;72.70;;;;;;5094763;28;20107;-38
2022/05/17 02:33:48;;;;;;;5.70;2.55;;;17.20;72.70;;;;;;5096033;28;20028;-38
2022/05/17 02:36:14;;;;;;;4.00;2.50;;;17.20;72.70;;;;;;5096137;28;20486;-38
2022/05/17 02:38:40;;;;;;;6.10;2.65;;;17.20;72.70;;;;;;5096140;28;20019;-38
2022/05/17 02:41:06;;;;;;;4.78;2.72;;;17.20;72.70;;;;;;5095896;28;20016;-37
2022/05/17 02:43:33;;;;;;;5.20;2.78;;;17.20;72.60;;;;;;5095929;28;20024;-37
2022/05/17 02:45:58;;;;;;;6.53;2.90;;;17.20;72.60;;;;;;5095910;28;20024;-38
2022/05/17 02:48:24;;;;;;;4.90;2.75;;;17.20;72.60;;;;;;5096251;28;20028;-37
2022/05/17 02:50:50;;;;;;;6.22;2.67;;;17.20;72.60;;;;;;5095848;28;20092;-38
2022/05/17 02:53:15;;;;;;;7.53;2.92;;;17.20;72.60;;;;;;5096008;28;20028;-38
2022/05/17 02:55:41;;;;;;;6.07;2.67;;;17.20;72.60;;;;;;5095810;28;20020;-37
2022/05/17 02:58:06;;;;;;;6.72;2.92;;;17.20;72.60;;;;;;5095524;28;20066;-37
2022/05/17 03:00:32;;;;;;;6.07;3.28;;;17.20;72.70;;;;;;5095838;28;20082;-37
2022/05/17 03:02:58;;;;;;;5.50;2.83;;;17.20;72.80;;;;;;5095801;28;20423;-36
2022/05/17 03:05:24;;;;;;;8.70;3.33;;;17.10;72.80;;;;;;5095496;28;20099;-38
2022/05/17 03:07:50;;;;;;;4.72;2.70;;;17.10;72.90;;;;;;5095352;28;20032;-38
2022/05/17 03:10:17;;;;;;;5.47;3.22;;;17.10;73.00;;;;;;5095672;28;20395;-37
2022/05/17 03:12:43;;;;;;;6.28;2.97;;;17.00;73.00;;;;;;5095809;28;20024;-37
2022/05/17 03:15:17;;;;;;;6.22;2.95;;;17.00;73.10;;;;;;5095556;28;20471;-38
2022/05/17 03:17:43;;;;;;;5.28;2.90;;;17.00;73.20;;;;;;5095177;28;20030;-38
2022/05/17 03:20:10;;;;;;;5.78;2.75;;;16.90;73.20;;;;;;5095278;28;20387;-37
2022/05/17 03:22:36;;;;;;;6.50;3.17;;;16.90;73.20;;;;;;5095159;28;20027;-37
2022/05/17 03:25:02;;;;;;;4.80;2.67;;;16.90;73.30;;;;;;5095617;28;20020;-38
2022/05/17 03:27:27;;;;;;;5.60;2.85;;;16.90;73.30;;;;;;5095489;28;20028;-38
2022/05/17 03:29:53;;;;;;;3.58;2.83;;;16.80;73.30;;;;;;5094507;28;20594;-38
2022/05/17 03:32:18;;;;;;;4.35;2.70;;;16.80;73.40;;;;;;5095032;28;20028;-37
2022/05/17 03:34:44;;;;;;;6.40;2.85;;;16.70;73.40;;;;;;5093941;28;20463;-38
2022/05/17 03:37:09;;;;;;;5.05;2.78;;;16.70;73.50;;;;;;5094872;28;20016;-38
2022/05/17 03:39:35;;;;;;;5.53;2.60;;;16.70;73.50;;;;;;5095243;28;20016;-38
2022/05/17 03:42:01;;;;;;;4.57;2.75;;;16.70;73.60;;;;;;5094994;28;20028;-38
2022/05/17 03:44:26;;;;;;;8.15;2.88;;;16.70;73.60;;;;;;5094805;28;20016;-38
2022/05/17 03:46:52;;;;;;;4.65;2.63;;;16.70;73.60;;;;;;5094841;28;20101;-38
2022/05/17 03:49:17;;;;;;;5.50;2.92;;;16.70;73.60;;;;;;5095060;28;20032;-38
2022/05/17 03:51:46;;;;;;;4.32;2.80;;;16.70;73.60;;;;;;5095123;28;20024;-37
2022/05/17 03:54:43;;;;;;;5.95;2.80;;;16.70;74.30;;;;;;5094900;28;20111;-38
2022/05/17 03:57:59;;;;;;;5.35;2.90;;;16.70;73.70;;;;;;5092736;28;20094;-39
2022/05/17 04:00:28;;;;;;;6.30;2.78;;;16.70;73.70;;;;;;5094021;28;20120;-38
2022/05/17 04:02:54;;;;;;;6.25;2.63;;;16.70;73.60;;;;;;5094508;28;20440;-37
2022/05/17 04:05:19;;;;;;;4.97;2.90;;;16.70;73.60;;;;;;5094341;28;20024;-39
2022/05/17 04:07:45;;;;;;;5.80;3.10;;;16.70;73.50;;;;;;5094393;28;20093;-37
2022/05/17 04:10:14;;;;;;;3.97;2.50;;;16.80;74.20;;;;;;5094298;28;20086;-37
2022/05/17 04:12:39;;;;;;;6.93;3.30;;;16.80;73.60;;;;;;5094109;28;20044;-39
2022/05/17 04:15:08;;;;;;;5.65;3.05;;;16.90;73.60;;;;;;5094197;28;20034;-37
2022/05/17 04:17:34;;;;;;;5.10;2.65;;;16.90;73.50;;;;;;5094026;28;20050;-37
2022/05/17 04:20:00;;;;;;;7.40;3.03;;;17.00;73.50;;;;;;5094010;28;20020;-37
2022/05/17 04:22:26;;;;;;;7.25;2.90;;;17.00;73.40;;;;;;5094043;28;20092;-37
2022/05/17 04:24:56;;;;;;;7.97;2.90;;;17.10;73.40;;;;;;5092857;28;20028;-37
2022/05/17 04:27:22;;;;;;;5.93;3.22;;;17.10;73.40;;;;;;5094139;28;20025;-38
2022/05/17 04:29:49;;;;;;;5.20;2.75;;;17.10;73.30;;;;;;5093969;28;20036;-44
2022/05/17 04:32:14;;;;;;;6.68;3.13;;;17.10;73.30;;;;;;5093974;28;20471;-38
2022/05/17 04:34:40;;;;;;;5.38;2.80;;;17.20;73.30;;;;;;5092822;28;20098;-38
2022/05/17 04:37:06;;;;;;;7.28;3.03;;;17.20;73.20;;;;;;5093876;28;20422;-36
2022/05/17 04:39:32;;;;;;;6.13;2.83;;;17.20;73.20;;;;;;5093876;28;20019;-36
2022/05/17 04:41:59;;;;;;;8.48;3.53;;;17.30;73.10;;;;;;5093622;28;20024;-38
2022/05/17 04:44:25;;;;;;;4.35;2.70;;;17.30;73.10;;;;;;5093593;28;20020;-38
2022/05/17 04:46:51;;;;;;;5.18;3.20;;;17.30;73.10;;;;;;5093711;28;20472;-38
2022/05/17 04:49:17;;;;;;;6.47;3.20;;;17.30;73.10;;;;;;5093489;28;20027;-37
2022/05/17 04:51:42;;;;;;;5.10;3.30;;;17.40;73.10;;;;;;5093692;28;20103;-37
2022/05/17 04:54:08;;;;;;;8.13;3.55;;;17.40;73.10;;;;;;5093495;28;20036;-37
2022/05/17 04:56:34;;;;;;;6.82;3.15;;;17.40;73.10;;;;;;5093174;28;20118;-36
2022/05/17 04:59:01;;;;;;;7.03;3.42;;;17.40;73.10;;;;;;5093232;28;20115;-38
2022/05/17 05:01:26;;;;;;;6.68;3.17;;;17.50;73.10;;;;;;5093528;28;20039;-38
2022/05/17 05:03:52;;;;;;;4.93;3.20;;;17.60;73.10;;;;;;5093425;28;20035;-37
2022/05/17 05:06:18;;;;;;;6.80;3.40;;;17.60;73.00;;;;;;5093600;28;20016;-38
2022/05/17 05:08:43;;;;;;;5.15;3.38;;;17.70;73.00;;;;;;5093153;28;20027;-38
2022/05/17 05:11:09;;;;;;;6.47;3.22;;;17.70;73.00;;;;;;5093227;28;20020;-41
2022/05/17 05:13:34;;;;;;;6.15;3.47;;;17.70;72.90;;;;;;5093383;28;20337;-36
2022/05/17 05:16:00;;;;;;;5.88;3.38;;;17.80;72.80;;;;;;5093081;28;20032;-38
2022/05/17 05:18:26;;;;;;;6.85;3.30;;;17.80;72.80;;;;;;5093028;28;20075;-37
2022/05/17 05:21:02;;;;;;;5.78;3.17;;;17.90;72.80;;;;;;5093024;28;20035;-38
2022/05/17 05:23:28;;;;;;;5.43;3.13;;;17.90;72.70;;;;;;5093230;28;20020;-37
2022/05/17 05:25:58;;;;;;;4.50;3.20;;;18.00;72.60;;;;;;5092865;28;20020;-37
2022/05/17 05:28:24;;;;;;;8.30;3.70;;;18.10;72.60;;;;;;5093241;28;20118;-38
2022/05/17 05:30:50;;;;;;;6.90;3.53;;;18.10;72.40;;;;;;5092939;28;20055;-37
2022/05/17 05:33:15;;;;;;;6.22;3.55;;;18.20;72.40;;;;;;5092952;28;20127;-37
2022/05/17 05:35:41;;;;;;;6.07;3.60;;;18.20;72.20;;;;;;5092922;28;20027;-37
2022/05/17 05:38:06;;;;;;;9.82;3.97;;;18.30;72.30;;;;;;5092752;28;20027;-37
2022/05/17 05:40:32;;;;;;;5.30;3.53;;;18.30;72.20;;;;;;5092880;28;20429;-36
2022/05/17 05:42:57;;;;;;;6.90;3.88;;;18.30;72.10;;;;;;5093029;28;20448;-37
2022/05/17 05:45:23;;;;;;;7.50;3.33;;;18.40;72.10;;;;;;5093017;28;20028;-38
2022/05/17 05:47:48;;;;;;;5.65;3.67;;;18.50;72.00;;;;;;5092647;28;20028;-38
2022/05/17 05:50:14;;;;;;;6.07;3.60;;;18.50;71.90;;;;;;5092828;28;20478;-37
2022/05/17 05:52:40;;;;;;;5.18;3.40;;;18.60;71.80;;;;;;5092195;28;20020;-38
2022/05/17 05:55:08;;;;;;;6.93;3.60;;;18.60;71.70;;;;;;5093003;28;20073;-36
2022/05/17 05:57:33;;;;;;;6.65;3.50;;;18.70;71.70;;;;;;5092436;28;20051;-36
2022/05/17 05:59:59;;;;;;;8.77;3.40;;;18.70;71.60;;;;;;5092551;28;20020;-38
2022/05/17 06:02:25;;;;;;;5.63;3.33;;;18.70;71.50;;;;;;5092366;28;20043;-37
2022/05/17 06:04:50;;;;;;;6.80;3.38;;;18.80;71.60;;;;;;5092353;28;20993;-36
2022/05/17 06:07:16;;;;;;;5.53;3.70;;;18.80;71.60;;;;;;5092168;28;20024;-36
2022/05/17 06:09:42;;;;;;;7.57;3.25;;;18.80;71.50;;;;;;5092179;28;20020;-37
2022/05/17 06:12:08;;;;;;;8.45;3.38;;;18.80;71.40;;;;;;5090736;28;20032;-37
2022/05/17 06:14:33;;;;;;;7.07;3.25;;;18.80;71.30;;;;;;5092032;28;20035;-36
2022/05/17 06:16:59;;;;;;;7.85;3.22;;;18.90;71.30;;;;;;5092054;28;20371;-38
2022/05/17 06:19:26;;;;;;;5.45;3.00;;;18.90;71.20;;;;;;5092167;28;20440;-37
2022/05/17 06:21:52;;;;;;;5.32;2.85;;;18.90;71.20;;;;;;5092152;28;20028;-37
2022/05/17 06:24:19;;;;;;;5.35;3.20;;;18.90;71.00;;;;;;5092004;28;20100;-38
2022/05/17 06:26:44;;;;;;;5.57;2.78;;;19.00;71.00;;;;;;5091863;28;20071;-38
2022/05/17 06:29:10;;;;;;;4.70;2.70;;;19.00;70.80;;;;;;5092280;28;20047;-38
2022/05/17 06:31:35;;;;;;;6.45;2.42;;;19.10;70.70;;;;;;5092224;28;20027;-39
2022/05/17 06:34:01;;;;;;;5.10;2.22;;;19.10;70.50;;;;;;5091994;28;20519;-38
2022/05/17 06:36:26;;;;;;;5.28;2.15;;;19.20;70.20;;;;;;5091899;28;20032;-38
2022/05/17 06:38:53;;;;;;;6.32;2.00;;;19.30;70.00;;;;;;5092086;28;20039;-39
2022/05/17 06:41:18;;;;;;;4.40;1.98;;;19.30;69.50;;;;;;5091937;28;20062;-38
2022/05/17 06:43:44;;;;;;;4.75;2.05;;;19.40;68.90;;;;;;5092030;28;20081;-37
2022/05/17 06:46:10;;;;;;;4.50;1.75;;;19.40;68.80;;;;;;5091964;28;20035;-38
2022/05/17 06:48:35;;;;;;;3.40;1.45;;;19.40;68.60;;;;;;5092010;28;20391;-38
2022/05/17 06:51:06;;;;;;;6.55;1.98;;;19.40;68.20;;;;;;5092075;28;20024;-37
2022/05/17 06:53:32;;;;;;;3.40;1.63;;;19.50;68.00;;;;;;5091881;28;20111;-39
2022/05/17 06:55:58;;;;;;;5.43;2.03;;;19.50;67.60;;;;;;5092361;28;20116;-38
2022/05/17 06:58:24;;;;;;;3.65;1.55;;;19.60;67.20;;;;;;5091710;28;20151;-38
2022/05/17 07:00:50;;;;;;;3.47;1.60;;;19.60;67.10;;;;;;5091966;28;20012;-37
2022/05/17 07:03:16;;;;;;;6.25;1.95;;;19.60;66.70;;;;;;5091888;28;20082;-42
2022/05/17 07:05:42;;;;;;;4.97;1.77;;;19.70;66.60;;;;;;5093770;28;20455;-38
2022/05/17 07:08:07;;;;;;;5.88;1.80;;;19.80;66.40;;;;;;5095885;28;20436;-38
2022/05/17 07:13:17;;;;;;;6.40;2.25;;;20.00;66.00;;;;;;5094878;28;20469;-37
2022/05/17 07:15:46;;;;;;;3.70;1.60;;;20.00;65.60;;;;;;5094482;28;20047;-38
2022/05/17 07:18:15;;;;;;;4.80;1.77;;;20.10;65.50;;;;;;5095764;28;20090;-37
2022/05/17 07:20:42;;;;;;;4.40;1.52;;;20.10;65.30;;;;;;5095700;28;20388;-38
2022/05/17 07:23:09;;;;;;;5.05;2.13;;;20.10;65.20;;;;;;5095547;28;20059;-38
2022/05/17 07:25:36;;;;;;;4.93;1.48;;;20.10;65.10;;;;;;5095362;28;20031;-38
2022/05/17 07:28:01;;;;;;;6.78;1.73;;;20.10;65.00;;;;;;5095669;28;20023;-38
2022/05/17 07:30:28;;;;;;;4.80;1.58;;;20.10;64.90;;;;;;5095514;28;20396;-39
2022/05/17 07:32:53;;;;;;;4.35;1.60;;;20.10;64.80;;;;;;5095718;28;20388;-39
2022/05/17 07:35:19;;;;;;;5.90;1.92;;;20.10;64.70;;;;;;5095412;28;20024;-39
2022/05/17 07:37:45;;;;;;;4.65;1.35;;;20.00;64.70;;;;;;5094997;28;20028;-39
2022/05/17 07:40:12;;;;;;;3.03;1.55;;;20.00;64.80;;;;;;5095244;28;20464;-38
2022/05/17 07:42:40;;;;;;;5.22;1.52;;;20.00;64.80;;;;;;5095074;28;20024;-39
2022/05/17 07:45:07;;;;;;;4.57;1.55;;;20.00;64.70;;;;;;5095419;28;20035;-38
2022/05/17 07:47:33;;;;;;;4.88;1.80;;;20.00;64.50;;;;;;5095082;28;20038;-38
2022/05/17 07:49:59;;;;;;;5.60;1.70;;;20.00;64.50;;;;;;5095465;28;20073;-38
2022/05/17 07:52:25;;;;;;;4.88;1.77;;;20.00;64.40;;;;;;5095050;28;20020;-38
2022/05/17 07:54:51;;;;;;;4.60;1.63;;;20.00;64.50;;;;;;5095076;28;20016;-38
2022/05/17 07:57:16;;;;;;;4.80;1.50;;;19.90;64.50;;;;;;5094652;28;20035;-39
2022/05/17 07:59:43;;;;;;;7.65;1.70;;;19.90;64.60;;;;;;5093310;28;20459;-39
2022/05/17 08:02:09;;;;;;;3.72;1.75;;;19.90;65.30;;;;;;5095410;28;20050;-39
2022/05/17 08:04:36;;;;;;;4.63;1.80;;;19.90;64.70;;;;;;5094709;28;20024;-38
2022/05/17 08:07:02;;;;;;;5.53;2.15;;;19.90;64.80;;;;;;5094869;28;20443;-37
2022/05/17 08:09:28;;;;;;;5.57;2.20;;;19.80;64.80;;;;;;5094804;28;20028;-39
2022/05/17 08:11:54;;;;;;;4.35;1.50;;;19.90;65.60;;;;;;5094516;28;20501;-39
2022/05/17 08:14:20;;;;;;;5.28;1.70;;;19.90;64.90;;;;;;5094702;28;20035;-39
2022/05/17 08:16:46;;;;;;;5.15;1.75;;;19.80;64.90;;;;;;5093983;28;20133;-39
2022/05/17 08:19:12;;;;;;;3.85;1.60;;;19.90;65.00;;;;;;5094067;28;20054;-38
2022/05/17 08:21:37;;;;;;;3.08;1.73;;;19.90;65.00;;;;;;5093742;28;20020;-39
2022/05/17 08:24:04;;;;;;;2.67;1.50;;;19.90;65.10;;;;;;5093501;28;20116;-38
2022/05/17 08:29:14;;;;;;;4.85;1.55;;;20.00;64.90;;;;;;5093866;28;20036;-39
2022/05/17 08:31:40;;;;;;;3.15;1.38;;;20.10;64.80;;;;;;5093513;28;20138;-39
2022/05/17 08:34:10;;;;;;;3.35;1.45;;;20.10;64.80;;;;;;5093534;28;20047;-38
2022/05/17 08:36:36;;;;;;;3.83;1.42;;;20.20;64.70;;;;;;5093391;28;20108;-38
2022/05/17 08:39:02;;;;;;;6.53;1.83;;;20.20;65.30;;;;;;5093712;28;20420;-39
2022/05/17 08:41:30;;;;;;;2.42;1.23;;;20.30;64.70;;;;;;5093552;28;20020;-38
2022/05/17 08:44:02;;;;;;;4.05;1.10;;;20.30;64.50;;;;;;5093338;28;20064;-39
2022/05/17 08:46:59;;;;;;;4.85;1.80;;;20.40;64.40;;;;;;5093203;28;20515;-37
2022/05/17 08:49:46;;;;;;;6.63;1.70;;;20.50;64.30;;;;;;5093228;28;20138;-39
2022/05/17 08:52:18;;;;;;;3.67;1.25;;;20.50;64.00;;;;;;5093015;28;20107;-37
2022/05/17 08:54:46;;;;;;;5.80;1.63;;;20.60;64.50;;;;;;5092986;28;20026;-37
2022/05/17 08:57:30;;;;;;;6.18;1.67;;;20.60;63.60;;;;;;5092990;28;20098;-39
2022/05/17 09:00:09;;;;;;;4.03;1.30;;;20.50;63.40;;;;;;5092987;28;20027;-38
2022/05/17 09:02:52;;;;;;;2.60;1.23;;;20.50;63.50;;;;;;5093121;28;20031;-37
2022/05/17 09:05:46;;;;;;;5.93;1.38;;;20.50;63.40;;;;;;5093281;28;20095;-39
2022/05/17 09:08:22;;;;;;;2.60;1.23;;;20.60;63.20;;;;;;5093113;28;20021;-38
2022/05/17 09:10:54;;;;;;;3.85;1.40;;;20.60;63.00;;;;;;5092997;28;20186;-39
2022/05/17 09:13:44;;;;;;;4.75;1.23;;;20.60;62.70;;;;;;5093026;28;20016;-38
2022/05/17 09:16:11;;;;;;;3.58;1.23;;;20.70;62.70;;;;;;5092905;28;20097;-38
2022/05/17 09:18:40;;;;;;;3.88;1.30;;;20.70;62.60;;;;;;5093111;28;20032;-39
2022/05/17 09:21:20;;;;;;;4.93;1.30;;;20.70;62.50;;;;;;5093046;28;20055;-38
2022/05/17 09:23:46;;;;;;;4.53;1.42;;;20.80;62.30;;;;;;5093188;28;20028;-37
2022/05/17 09:26:17;;;;;;;3.13;1.10;;;20.90;62.20;;;;;;5093189;28;20020;-37
2022/05/17 09:28:48;;;;;;;4.38;1.40;;;21.00;61.90;;;;;;5092644;28;20024;-37
2022/05/17 09:31:35;;;;;;;4.75;1.58;;;21.10;61.60;;;;;;5093019;28;20122;-37
2022/05/17 09:34:04;;;;;;;3.85;1.40;;;21.10;61.50;;;;;;5092439;28;20036;-39
2022/05/17 09:36:48;;;;;;;5.93;1.50;;;21.10;61.30;;;;;;5092708;28;20105;-37
2022/05/17 09:39:20;;;;;;;3.78;1.20;;;21.20;61.30;;;;;;5092792;28;20472;-38
2022/05/17 09:41:46;;;;;;;4.13;1.40;;;21.20;61.20;;;;;;5092632;28;20051;-37
2022/05/17 09:44:19;;;;;;;2.67;1.17;;;21.30;61.10;;;;;;5092650;28;20024;-37
2022/05/17 09:46:47;;;;;;;3.13;1.10;;;21.30;61.00;;;;;;5091113;28;20020;-38
2022/05/17 09:55:12;;;;;;;3.10;1.65;;;21.50;60.50;;;;;;5092835;28;20062;-36
2022/05/17 09:57:53;;;;;;;3.63;1.55;;;21.50;60.70;;;;;;5091902;28;20468;-38
2022/05/17 10:00:23;;;;;;;3.35;1.33;;;21.50;60.70;;;;;;5092130;28;20028;-38
2022/05/17 10:03:31;;;;;;;4.95;1.50;;;21.50;60.70;;;;;;5092278;28;20055;-37
2022/05/17 10:06:03;;;;;;;5.20;1.50;;;21.70;60.60;;;;;;5092323;28;20027;-38
2022/05/17 10:08:34;;;;;;;7.38;2.17;;;21.70;60.40;;;;;;5092435;28;20424;-39
2022/05/17 10:11:17;;;;;;;4.03;1.30;;;21.90;60.30;;;;;;5092347;28;20028;-37
2022/05/17 10:13:45;;;;;;;2.65;1.60;;;22.00;60.00;;;;;;5092308;28;20020;-38
2022/05/17 10:16:27;;;;;;;3.80;1.55;;;22.10;59.80;;;;;;5092261;28;20024;-37
2022/05/17 10:18:59;;;;;;;4.68;1.98;;;22.30;59.80;;;;;;5091745;28;20031;-38
2022/05/17 10:21:44;;;;;;;5.35;1.80;;;22.40;60.20;;;;;;5092024;28;20408;-38
2022/05/17 10:24:27;;;;;;;3.42;1.70;;;22.70;59.30;;;;;;5092010;28;20016;-37
2022/05/17 10:26:58;;;;;;;;;;;23.00;58.90;;;;;;5092257;28;20072;-37
2022/05/17 10:29:31;;;;;;;2.95;1.65;;;23.10;58.80;;;;;;5092256;28;20361;-38
2022/05/17 10:32:20;;;;;;;5.93;2.15;;;23.20;58.70;;;;;;5092229;28;20024;-38
2022/05/17 10:35:23;;;;;;;5.30;1.90;;;23.30;58.50;;;;;;5091139;28;20016;-40
2022/05/17 10:38:26;;;;;;;6.10;1.70;;;23.40;58.30;;;;;;5091990;28;20036;-38
2022/05/17 10:40:53;;;;;;;4.72;2.17;;;23.50;58.10;;;;;;5013704;28;20478;-40
2022/05/17 10:43:19;;;;;;;4.82;2.13;;;23.60;58.00;;;;;;5081272;28;20024;-38
2022/05/17 10:45:49;;;;;;;4.90;2.35;;;23.60;57.80;;;;;;5096275;28;20141;-39
2022/05/17 10:48:38;;;;;;;4.47;2.30;;;23.60;57.50;;;;;;5096332;28;20099;-39
2022/05/17 10:51:27;;;;;;;4.05;2.03;;;23.50;57.70;;;;;;5096316;28;20024;-39
2022/05/17 10:54:24;;;;;;;6.25;2.28;;;23.50;57.70;;;;;;5095903;28;20020;-39
2022/05/17 10:57:15;;;;;;;7.28;2.58;;;23.50;57.70;;;;;;5094373;28;20077;-39
2022/05/17 11:00:00;;;;;;;5.15;2.13;;;23.50;57.90;;;;;;5095976;28;20043;-39
2022/05/17 11:02:47;;;;;;;5.05;2.10;;;23.60;57.70;;;;;;5095841;28;20024;-39
2022/05/17 11:05:54;;;;;;;5.13;2.10;;;23.60;57.30;;;;;;5095911;28;20535;-39
2022/05/17 11:08:30;;;;;;;5.03;2.17;;;23.70;57.30;;;;;;5095565;28;20056;-38
2022/05/17 11:11:07;;;;;;;3.45;2.15;;;23.80;57.00;;;;;;5095898;28;20028;-45
2022/05/17 11:13:42;;;;;;;5.88;2.80;;;23.90;56.80;;;;;;5095431;28;20460;-37
2022/05/17 11:16:21;;;;;;;4.30;2.17;;;24.00;56.70;;;;;;5095488;28;20352;-39
2022/05/17 11:19:05;;;;;;;6.03;2.50;;;24.00;56.80;;;;;;5095198;28;20063;-38
2022/05/17 11:21:40;;;;;;;4.53;2.40;;;23.90;56.60;;;;;;5095313;28;20340;-39
2022/05/17 11:24:22;;;;;;;3.47;1.77;;;23.90;56.50;;;;;;5095251;28;20050;-39
2022/05/17 11:27:23;;;;;;;4.18;1.90;;;23.80;56.50;;;;;;5095177;28;20028;-39
2022/05/17 11:30:08;;;;;;;3.75;2.10;;;23.90;56.30;;;;;;5053676;28;20048;-39
2022/05/17 11:32:39;;;;;;;5.47;2.42;;;24.00;56.10;;;;;;5094887;28;20127;-37
2022/05/17 11:35:27;;;;;;;4.10;2.38;;;24.10;55.90;;;;;;5094922;28;20028;-39
2022/05/17 11:37:54;;;;;;;5.30;2.45;;;24.20;55.80;;;;;;5094883;28;20075;-39
2022/05/17 11:40:47;;;;;;;6.00;2.65;;;24.30;55.70;;;;;;5095245;28;20424;-39
2022/05/17 11:43:42;;;;;;;6.03;2.40;;;24.40;55.60;;;;;;5094769;28;20077;-39
2022/05/17 11:46:34;;;;;;;3.05;2.03;;;24.50;55.60;;;;;;5094802;28;20032;-39
2022/05/17 11:49:31;;;;;;;5.20;2.20;;;24.60;55.20;;;;;;5094765;28;20059;-39
2022/05/17 11:51:59;;;;;;;5.72;2.42;;;24.70;55.20;;;;;;5072619;28;20036;-47
2022/05/17 11:54:49;;;;;;;5.13;1.85;;;24.70;55.20;;;;;;5094870;28;20032;-38
2022/05/17 11:57:23;;;;;;;5.57;2.28;;;24.70;55.20;;;;;;5094625;28;20028;-39
2022/05/17 12:00:08;;;;;;;4.15;1.88;;;24.70;54.60;;;;;;5094654;28;20498;-38
2022/05/17 12:02:40;;;;;;;3.20;2.25;;;24.70;54.50;;;;;;5094543;28;20023;-39
2022/05/17 12:05:10;;;;;;;4.38;2.10;;;24.70;54.50;;;;;;5094694;28;20043;-39
2022/05/17 12:07:36;;;;;;;3.67;2.05;;;24.80;54.50;;;;;;5095034;28;20476;-39
2022/05/17 12:10:12;;;;;;;3.63;1.73;;;24.90;54.40;;;;;;5094579;28;20115;-39
2022/05/17 12:12:58;;;;;;;2.92;1.70;;;24.90;54.20;;;;;;5094783;28;20036;-39
2022/05/17 12:15:35;;;;;;;3.88;1.70;;;25.00;54.00;;;;;;5094927;28;20061;-39
2022/05/17 12:18:16;;;;;;;3.22;1.90;;;25.10;53.90;;;;;;5094297;28;20024;-39
2022/05/17 12:20:51;;;;;;;5.20;2.10;;;25.20;53.80;;;;;;5094086;28;20111;-48
2022/05/17 12:23:22;;;;;;;3.40;1.75;;;25.30;53.50;;;;;;5094145;28;20540;-39
2022/05/17 12:26:06;;;;;;;4.72;1.95;;;25.30;53.20;;;;;;5093987;28;20028;-39
2022/05/17 12:28:38;;;;;;;4.97;2.40;;;25.50;53.20;;;;;;5092829;28;20467;-44
2022/05/17 12:31:08;;;;;;;3.95;1.98;;;25.60;53.10;;;;;;5094477;28;20086;-40
2022/05/17 12:33:41;;;;;;;5.00;2.20;;;25.60;52.90;;;;;;5093966;28;20119;-40
2022/05/17 12:36:28;;;;;;;4.43;1.98;;;25.70;52.90;;;;;;5093947;28;20024;-38
2022/05/17 12:44:54;;;;;;;4.85;2.90;;;25.70;53.00;;;;;;5093833;28;20105;-38
2022/05/17 12:47:37;;;;;;;3.67;2.10;;;25.70;53.00;;;;;;5093599;28;20368;-39
2022/05/17 12:50:02;;;;;;;3.95;2.20;;;25.80;53.10;;;;;;5093551;28;20132;-39
2022/05/17 12:52:37;;;;;;;4.32;2.33;;;25.90;53.20;;;;;;5093778;28;20055;-40
2022/05/17 12:55:11;;;;;;;4.07;2.28;;;25.90;53.20;;;;;;5093469;28;20119;-39
2022/05/17 12:57:39;;;;;;;4.57;2.15;;;26.00;53.20;;;;;;5093440;28;20169;-39
2022/05/17 13:00:16;;;;;;;5.35;2.30;;;26.10;53.10;;;;;;5094168;28;20039;-38
2022/05/17 13:02:49;;;;;;;3.10;2.10;;;26.20;52.90;;;;;;5092464;28;20107;-39
2022/05/17 13:05:32;;;;;;;2.95;1.88;;;26.20;52.80;;;;;;5093368;28;20020;-38
2022/05/17 13:08:06;;;;;;;3.03;1.90;;;26.30;52.60;;;;;;5093306;28;20495;-46
2022/05/17 13:10:32;;;;;;;4.53;2.20;;;26.30;52.20;;;;;;5093072;28;20061;-39
2022/05/17 13:12:59;;;;;;;3.70;1.98;;;26.30;52.20;;;;;;5093239;28;20047;-38
2022/05/17 13:15:26;;;;;;;6.97;2.00;;;26.20;52.20;;;;;;5093333;28;20031;-39
2022/05/17 13:17:57;;;;;;;3.55;1.65;;;26.20;52.30;;;;;;5092918;28;20040;-39
2022/05/17 13:20:28;;;;;;;4.60;2.20;;;26.10;52.30;;;;;;5093151;28;20482;-38
2022/05/17 13:22:55;;;;;;;3.95;1.70;;;26.00;52.40;;;;;;5092637;28;20020;-39
2022/05/17 13:25:23;;;;;;;4.47;1.60;;;26.00;52.40;;;;;;5093078;28;20016;-36